Pintail — WDF5177 — position and weather

sailwx.info

Track history (hours):
 
Tides and Currents Weather Stations Pressure Air Temp Water Temp Dewpoint Dewpoint Depression Visibility Wind Speed Wind Dir Waves Ship Positions

Pintail

Owner: Pintail Marine Services, Inc, Friday Harbor, WA. More information available from US FCC via Universal Licensing System and Coast Guard Vessel Documentation Center.

Last reported at 2016-Jun-27 01:32 UTC. Time now 2016-Jun-27 13:15 UTC.
Position N 48°32' W 122°60'.

Length 19 m.

Type: Towing. MMSI: 367460260.

Date/timePositionNaut miles runAvg speedWind from/ knotsBaromVisibWave heightAir tempDewpointWater temp
2016-Jun-27 01:32N 48°32' W 122°60'0 0.0
2016-Jun-27 00:29N 48°32' W 122°60'0 0.0
2016-Jun-26 23:29N 48°32' W 122°60'0 0.0
2016-Jun-26 22:32N 48°32' W 122°60'0 0.0
2016-Jun-26 21:29N 48°32' W 122°60'0 0.0
2016-Jun-26 20:32N 48°32' W 122°60'0 0.0
2016-Jun-26 19:29N 48°32' W 122°60'0 0.0
2016-Jun-26 18:32N 48°32' W 122°60'0 0.0
2016-Jun-26 17:32N 48°32' W 122°60'0 0.0
2016-Jun-26 16:20N 48°32' W 122°60'0 0.0
2016-Jun-26 15:29N 48°32' W 122°60'0 0.0
2016-Jun-26 14:29N 48°32' W 122°60'0 0.0
2016-Jun-26 13:29N 48°32' W 122°60'0 0.0
2016-Jun-26 12:32N 48°32' W 122°60'0 0.0
2016-Jun-26 11:32N 48°32' W 122°60'0 0.0
2016-Jun-26 10:32N 48°32' W 122°60'0 0.0
2016-Jun-26 09:32N 48°32' W 122°60'0 0.0
2016-Jun-26 08:32N 48°32' W 122°60'0 0.0
2016-Jun-26 07:32N 48°32' W 122°60'0 0.0
2016-Jun-26 06:32N 48°32' W 122°60'0 0.0
2016-Jun-26 05:29N 48°32' W 122°60'0 0.0
2016-Jun-26 04:32N 48°32' W 122°60'0 0.0
2016-Jun-26 03:32N 48°32' W 122°60'0 0.0
2016-Jun-26 02:32N 48°32' W 122°60'0 0.0
2016-Jun-26 01:32N 48°32' W 122°60'0 0.0
2016-Jun-26 00:32N 48°32' W 122°60'0 0.0
2016-Jun-25 23:32N 48°32' W 122°60'0 0.0
2016-Jun-25 22:32N 48°32' W 122°60'0 0.0
2016-Jun-25 21:32N 48°32' W 122°60'0 0.0
2016-Jun-25 20:32N 48°32' W 122°60'0 0.0
2016-Jun-25 19:32N 48°32' W 122°60'0 0.0
2016-Jun-25 18:29N 48°32' W 122°60'0 0.0
2016-Jun-25 17:32N 48°32' W 122°60'0 0.0
2016-Jun-25 16:29N 48°32' W 122°60'0 0.0
2016-Jun-25 15:32N 48°32' W 122°60'0 0.0
2016-Jun-25 14:32N 48°32' W 122°60'0 0.0
2016-Jun-25 13:32N 48°32' W 122°60'0 0.0
2016-Jun-25 12:32N 48°32' W 122°60'0 0.0
2016-Jun-25 11:32N 48°32' W 122°60'0 0.0
2016-Jun-25 10:29N 48°32' W 122°60'0 0.0
2016-Jun-25 09:32N 48°32' W 122°60'0 0.0
2016-Jun-25 08:32N 48°32' W 122°60'0 0.0
2016-Jun-25 07:32N 48°32' W 122°60'0 0.0
2016-Jun-25 06:26N 48°32' W 122°60'0 0.0
2016-Jun-25 05:32N 48°32' W 122°60'0 0.0
2016-Jun-25 04:32N 48°32' W 122°60'0 0.0
2016-Jun-25 03:32N 48°32' W 122°60'0 0.0
2016-Jun-25 02:29N 48°32' W 122°60'0 0.0
2016-Jun-25 01:29N 48°32' W 122°60'0 0.0
2016-Jun-25 00:32N 48°32' W 122°60'0 0.0
2016-Jun-24 23:32N 48°32' W 122°60'0 0.0
2016-Jun-24 22:32N 48°32' W 122°60'0 0.0
2016-Jun-24 21:32N 48°32' W 122°60'1 1.3
2016-Jun-24 20:32N 48°32' W 122°58'5 4.7
2016-Jun-24 19:32N 48°33' W 122°51'10 4.8
2016-Jun-24 17:25N 48°31' W 122°36'5 4.2
2016-Jun-24 16:12N 48°32' W 122°44'4 6.0
2016-Jun-24 15:33N 48°33' W 122°50'5 4.7
2016-Jun-24 14:33N 48°33' W 122°57'2 2.3
2016-Jun-24 13:32N 48°32' W 122°60'0 0.0
2016-Jun-24 12:32N 48°32' W 122°60'0 0.0
2016-Jun-24 11:33N 48°32' W 122°60'0 0.0
2016-Jun-24 10:29N 48°32' W 122°60'0 0.0
2016-Jun-24 09:26N 48°32' W 122°60'0 0.0
2016-Jun-24 08:29N 48°32' W 122°60'0 0.0
2016-Jun-24 07:32N 48°32' W 122°60'0 0.0
2016-Jun-24 04:32N 48°32' W 122°60'0 0.0
2016-Jun-24 03:32N 48°32' W 122°60'0 0.0
2016-Jun-24 02:32N 48°32' W 122°60'0 0.0
2016-Jun-24 01:32N 48°32' W 122°60'0 0.0
2016-Jun-24 00:29N 48°32' W 122°60'0 0.0
2016-Jun-23 23:32N 48°32' W 122°60'0 0.0
2016-Jun-23 22:32N 48°32' W 122°60'0 0.0
2016-Jun-23 21:32N 48°32' W 122°60'0 0.0
2016-Jun-23 20:33N 48°32' W 122°60'0 0.0
2016-Jun-23 19:32N 48°32' W 122°60'0 0.0
2016-Jun-23 18:32N 48°32' W 122°60'0 0.0
2016-Jun-23 17:29N 48°32' W 122°60'0 0.0
2016-Jun-23 16:32N 48°32' W 122°60'0 0.0
2016-Jun-23 15:33N 48°32' W 122°60'0 0.4
2016-Jun-23 14:33N 48°32' W 123°00'0 0.4
2016-Jun-23 13:32N 48°32' W 122°60'0 0.0
2016-Jun-23 12:32N 48°32' W 122°60'0 0.0
2016-Jun-23 11:29N 48°32' W 122°60'0 0.0
2016-Jun-23 10:32N 48°32' W 122°60'0 0.0
2016-Jun-23 09:32N 48°32' W 122°60'0 0.0
2016-Jun-23 08:29N 48°32' W 122°60'0 0.0
2016-Jun-23 07:32N 48°32' W 122°60'0 0.0
2016-Jun-23 05:32N 48°32' W 122°60'0 0.0
2016-Jun-23 04:32N 48°32' W 122°60'0 0.0
2016-Jun-23 03:32N 48°32' W 122°60'0 0.0
2016-Jun-23 02:30N 48°32' W 122°60'0 0.0
2016-Jun-23 01:30N 48°32' W 122°60'0 0.0
2016-Jun-23 00:33N 48°32' W 122°60'0 0.0
2016-Jun-22 23:33N 48°32' W 122°60'0 0.0
2016-Jun-22 22:33N 48°32' W 122°60'0 0.0
2016-Jun-22 21:32N 48°32' W 122°60'2 2.0
2016-Jun-22 20:34N 48°33' W 122°57'5 4.4
2016-Jun-22 19:32N 48°33' W 122°51'5 4.7
2016-Jun-22 18:33N 48°32' W 122°44'5 4.7
2016-Jun-22 17:30N 48°31' W 122°36'9 4.3
2016-Jun-22 15:33N 48°32' W 122°49'4 4.5
2016-Jun-22 14:33N 48°33' W 122°56'3 3.0
2016-Jun-22 13:29N 48°32' W 122°60'0 0.0
2016-Jun-22 12:32N 48°32' W 122°60'0 0.0
2016-Jun-22 11:32N 48°32' W 122°60'0 0.0
2016-Jun-22 10:23N 48°32' W 122°60'0 0.0
2016-Jun-22 09:29N 48°32' W 122°60'0 0.0
2016-Jun-22 06:29N 48°32' W 122°60'0 0.0
2016-Jun-22 05:32N 48°32' W 122°60'0 0.0
2016-Jun-22 04:29N 48°32' W 122°60'0 0.0
2016-Jun-22 03:32N 48°32' W 122°60'0 0.0
2016-Jun-22 02:29N 48°32' W 122°60'0 0.0
2016-Jun-22 01:29N 48°32' W 122°60'0 0.0
2016-Jun-22 00:33N 48°32' W 122°60'0 0.0
2016-Jun-21 23:33N 48°32' W 122°60'0 0.0
2016-Jun-21 22:34N 48°32' W 122°60'0 0.0
2016-Jun-21 21:34N 48°32' W 122°60'0 0.0
2016-Jun-21 20:30N 48°32' W 122°60'0 0.0
2016-Jun-21 19:33N 48°32' W 122°60'0 0.0
2016-Jun-21 18:33N 48°32' W 122°60'0 0.0
2016-Jun-21 17:33N 48°32' W 122°60'0 0.0
2016-Jun-21 16:33N 48°32' W 122°60'0 0.0
2016-Jun-21 15:33N 48°32' W 122°60'0 0.0
2016-Jun-21 14:33N 48°32' W 122°60'0 0.0
2016-Jun-21 13:33N 48°32' W 122°60'0 0.0
2016-Jun-21 12:33N 48°32' W 122°60'0 0.0
2016-Jun-21 11:24N 48°32' W 122°60'0 0.0
2016-Jun-21 10:33N 48°32' W 122°60'0 0.0
2016-Jun-21 09:33N 48°32' W 122°60'0 0.0
2016-Jun-21 08:33N 48°32' W 122°60'0 0.0
2016-Jun-21 07:33N 48°32' W 122°60'0 0.0
2016-Jun-21 04:33N 48°32' W 122°60'0 0.0
2016-Jun-21 03:33N 48°32' W 122°60'0 0.0
2016-Jun-21 02:33N 48°32' W 122°60'0 0.0
2016-Jun-21 01:33N 48°32' W 122°60'0 0.0
2016-Jun-21 00:33N 48°32' W 122°60'0 0.0
2016-Jun-20 23:32N 48°32' W 122°60'0 0.4
2016-Jun-20 22:31N 48°32' W 123°00'1 0.5
2016-Jun-20 21:33N 48°32' W 122°60'2 2.2
2016-Jun-20 20:33N 48°32' W 122°57'4 4.2
2016-Jun-20 19:33N 48°33' W 122°51'5 4.9
2016-Jun-20 18:33N 48°32' W 122°44'5 4.9
2016-Jun-20 17:33N 48°31' W 122°36'8 4.0
2016-Jun-20 15:32N 48°32' W 122°48'5 5.2
2016-Jun-20 14:33N 48°33' W 122°56'3 3.1
2016-Jun-20 13:33N 48°32' W 122°60'0 0.0
2016-Jun-20 12:33N 48°32' W 122°60'0 0.0
2016-Jun-20 11:33N 48°32' W 122°60'0 0.0
2016-Jun-20 10:33N 48°32' W 122°60'0 0.0
2016-Jun-20 09:33N 48°32' W 122°60'0 0.0
2016-Jun-20 08:30N 48°32' W 122°60'0 0.0
2016-Jun-20 07:33N 48°32' W 122°60'0 0.0
2016-Jun-20 06:33N 48°32' W 122°60'0 0.0
2016-Jun-20 05:34N 48°32' W 122°60'0 0.0
2016-Jun-20 04:31N 48°32' W 122°60'0 0.0
2016-Jun-20 03:31N 48°32' W 122°60'0 0.0
2016-Jun-20 02:31N 48°32' W 122°60'0 0.0
2016-Jun-20 01:31N 48°32' W 122°60'0 0.0
2016-Jun-20 00:31N 48°32' W 122°60'0 0.0
2016-Jun-19 23:33N 48°32' W 122°60'0 0.0
2016-Jun-19 22:33N 48°32' W 122°60'0 0.0
2016-Jun-19 21:32N 48°32' W 122°60'0 0.0
2016-Jun-19 19:33N 48°32' W 122°60'0 0.0
2016-Jun-19 18:33N 48°32' W 122°60'0 0.0
2016-Jun-19 17:31N 48°32' W 122°60'0 0.0
2016-Jun-19 16:28N 48°32' W 122°60'0 0.0
2016-Jun-19 15:28N 48°32' W 122°60'0 0.0
2016-Jun-19 14:33N 48°32' W 122°60'0 0.0
2016-Jun-19 13:33N 48°32' W 122°60'0 0.0
2016-Jun-19 12:33N 48°32' W 122°60'0 0.0
2016-Jun-19 11:33N 48°32' W 122°60'0 0.0
2016-Jun-19 10:33N 48°32' W 122°60'0 0.0
2016-Jun-19 09:33N 48°32' W 122°60'0 0.0
2016-Jun-19 08:33N 48°32' W 122°60'0 0.0
2016-Jun-19 07:33N 48°32' W 122°60'0 0.0
2016-Jun-19 06:33N 48°32' W 122°60'0 0.0
2016-Jun-19 05:33N 48°32' W 122°60'0 0.0
2016-Jun-19 04:33N 48°32' W 122°60'0 0.0
2016-Jun-19 03:33N 48°32' W 122°60'0 0.0
2016-Jun-19 02:33N 48°32' W 122°60'0 0.0
2016-Jun-19 01:32N 48°32' W 122°60'0 0.0
2016-Jun-19 00:32N 48°32' W 122°60'0 0.0
2016-Jun-18 20:13N 48°32' W 122°60'0 0.0
2016-Jun-18 19:33N 48°32' W 122°60'0 0.0
2016-Jun-18 18:33N 48°32' W 122°60'0 0.0
2016-Jun-18 17:33N 48°32' W 122°60'0 0.0
2016-Jun-18 16:33N 48°32' W 122°60'0 0.0
2016-Jun-18 15:33N 48°32' W 122°60'0 0.0
2016-Jun-18 14:33N 48°32' W 122°60'0 0.0
2016-Jun-18 13:33N 48°32' W 122°60'0 0.0
2016-Jun-18 12:33N 48°32' W 122°60'0 0.0
2016-Jun-18 11:33N 48°32' W 122°60'0 0.0
2016-Jun-18 10:33N 48°32' W 122°60'0 0.0
2016-Jun-18 09:30N 48°32' W 122°60'0 0.0
2016-Jun-18 08:33N 48°32' W 122°60'0 0.0
2016-Jun-18 07:30N 48°32' W 122°60'0 0.0
2016-Jun-18 06:34N 48°32' W 122°60'0 0.0
2016-Jun-18 05:34N 48°32' W 122°60'0 0.0
2016-Jun-18 04:30N 48°32' W 122°60'0 0.0
2016-Jun-18 03:33N 48°32' W 122°60'0 0.0
2016-Jun-18 02:33N 48°32' W 122°60'0 0.0
2016-Jun-18 01:33N 48°32' W 122°60'1 1.1
2016-Jun-18 00:33N 48°31' W 123°00'1 1.2
2016-Jun-17 23:33N 48°31' W 122°58'1 1.2
2016-Jun-17 22:30N 48°32' W 122°60'0 0.0
2016-Jun-17 21:33N 48°32' W 122°60'0 0.0
2016-Jun-17 20:30N 48°32' W 122°60'0 0.0
2016-Jun-17 19:31N 48°32' W 122°60'0 0.0
2016-Jun-17 18:31N 48°32' W 122°60'0 0.0
2016-Jun-17 17:21N 48°32' W 122°60'0 0.0
2016-Jun-17 16:33N 48°32' W 122°60'0 0.0
2016-Jun-17 15:33N 48°32' W 122°60'0 0.0
2016-Jun-17 14:33N 48°32' W 122°60'0 0.0
2016-Jun-17 13:33N 48°32' W 122°60'0 0.0
2016-Jun-17 12:33N 48°32' W 122°60'0 0.0
2016-Jun-17 11:33N 48°32' W 122°60'0 0.0
2016-Jun-17 10:33N 48°32' W 122°60'0 0.0
2016-Jun-17 09:33N 48°32' W 122°60'0 0.0
2016-Jun-17 08:33N 48°32' W 122°60'0 0.0
2016-Jun-17 07:32N 48°32' W 122°60'0 0.0
2016-Jun-17 06:32N 48°32' W 122°60'0 0.0
2016-Jun-17 05:32N 48°32' W 122°60'0 0.0
2016-Jun-17 04:32N 48°32' W 122°60'0 0.0
2016-Jun-17 03:32N 48°32' W 122°60'0 0.0
2016-Jun-17 02:32N 48°32' W 122°60'0 0.1
2016-Jun-17 01:33N 48°32' W 123°00'  
Track history (hours):
 
Tides and Currents Weather Stations Pressure Air Temp Water Temp Dewpoint Dewpoint Depression Visibility Wind Speed Wind Dir Waves Ship Positions

Pintail

Owner: Pintail Marine Services, Inc, Friday Harbor, WA. More information available from US FCC via Universal Licensing System and Coast Guard Vessel Documentation Center.

Last reported at 2016-Jun-27 01:32 UTC. Time now 2016-Jun-27 13:15 UTC.
Position N 48°32' W 122°60'.

Length 19 m.

Type: Towing. MMSI: 367460260.

Date/timePositionNaut miles runAvg speedWind from/ knotsBaromVisibWave heightAir tempDewpointWater temp
2016-Jun-27 01:32N 48°32' W 122°60'0 0.0
2016-Jun-27 00:29N 48°32' W 122°60'0 0.0
2016-Jun-26 23:29N 48°32' W 122°60'0 0.0
2016-Jun-26 22:32N 48°32' W 122°60'0 0.0
2016-Jun-26 21:29N 48°32' W 122°60'0 0.0
2016-Jun-26 20:32N 48°32' W 122°60'0 0.0
2016-Jun-26 19:29N 48°32' W 122°60'0 0.0
2016-Jun-26 18:32N 48°32' W 122°60'0 0.0
2016-Jun-26 17:32N 48°32' W 122°60'0 0.0
2016-Jun-26 16:20N 48°32' W 122°60'0 0.0
2016-Jun-26 15:29N 48°32' W 122°60'0 0.0
2016-Jun-26 14:29N 48°32' W 122°60'0 0.0
2016-Jun-26 13:29N 48°32' W 122°60'0 0.0
2016-Jun-26 12:32N 48°32' W 122°60'0 0.0
2016-Jun-26 11:32N 48°32' W 122°60'0 0.0
2016-Jun-26 10:32N 48°32' W 122°60'0 0.0
2016-Jun-26 09:32N 48°32' W 122°60'0 0.0
2016-Jun-26 08:32N 48°32' W 122°60'0 0.0
2016-Jun-26 07:32N 48°32' W 122°60'0 0.0
2016-Jun-26 06:32N 48°32' W 122°60'0 0.0
2016-Jun-26 05:29N 48°32' W 122°60'0 0.0
2016-Jun-26 04:32N 48°32' W 122°60'0 0.0
2016-Jun-26 03:32N 48°32' W 122°60'0 0.0
2016-Jun-26 02:32N 48°32' W 122°60'0 0.0
2016-Jun-26 01:32N 48°32' W 122°60'0 0.0
2016-Jun-26 00:32N 48°32' W 122°60'0 0.0
2016-Jun-25 23:32N 48°32' W 122°60'0 0.0
2016-Jun-25 22:32N 48°32' W 122°60'0 0.0
2016-Jun-25 21:32N 48°32' W 122°60'0 0.0
2016-Jun-25 20:32N 48°32' W 122°60'0 0.0
2016-Jun-25 19:32N 48°32' W 122°60'0 0.0
2016-Jun-25 18:29N 48°32' W 122°60'0 0.0
2016-Jun-25 17:32N 48°32' W 122°60'0 0.0
2016-Jun-25 16:29N 48°32' W 122°60'0 0.0
2016-Jun-25 15:32N 48°32' W 122°60'0 0.0
2016-Jun-25 14:32N 48°32' W 122°60'0 0.0
2016-Jun-25 13:32N 48°32' W 122°60'0 0.0
2016-Jun-25 12:32N 48°32' W 122°60'0 0.0
2016-Jun-25 11:32N 48°32' W 122°60'0 0.0
2016-Jun-25 10:29N 48°32' W 122°60'0 0.0
2016-Jun-25 09:32N 48°32' W 122°60'0 0.0
2016-Jun-25 08:32N 48°32' W 122°60'0 0.0
2016-Jun-25 07:32N 48°32' W 122°60'0 0.0
2016-Jun-25 06:26N 48°32' W 122°60'0 0.0
2016-Jun-25 05:32N 48°32' W 122°60'0 0.0
2016-Jun-25 04:32N 48°32' W 122°60'0 0.0
2016-Jun-25 03:32N 48°32' W 122°60'0 0.0
2016-Jun-25 02:29N 48°32' W 122°60'0 0.0
2016-Jun-25 01:29N 48°32' W 122°60'0 0.0
2016-Jun-25 00:32N 48°32' W 122°60'0 0.0
2016-Jun-24 23:32N 48°32' W 122°60'0 0.0
2016-Jun-24 22:32N 48°32' W 122°60'0 0.0
2016-Jun-24 21:32N 48°32' W 122°60'1 1.3
2016-Jun-24 20:32N 48°32' W 122°58'5 4.7
2016-Jun-24 19:32N 48°33' W 122°51'10 4.8
2016-Jun-24 17:25N 48°31' W 122°36'5 4.2
2016-Jun-24 16:12N 48°32' W 122°44'4 6.0
2016-Jun-24 15:33N 48°33' W 122°50'5 4.7
2016-Jun-24 14:33N 48°33' W 122°57'2 2.3
2016-Jun-24 13:32N 48°32' W 122°60'0 0.0
2016-Jun-24 12:32N 48°32' W 122°60'0 0.0
2016-Jun-24 11:33N 48°32' W 122°60'0 0.0
2016-Jun-24 10:29N 48°32' W 122°60'0 0.0
2016-Jun-24 09:26N 48°32' W 122°60'0 0.0
2016-Jun-24 08:29N 48°32' W 122°60'0 0.0
2016-Jun-24 07:32N 48°32' W 122°60'0 0.0
2016-Jun-24 04:32N 48°32' W 122°60'0 0.0
2016-Jun-24 03:32N 48°32' W 122°60'0 0.0
2016-Jun-24 02:32N 48°32' W 122°60'0 0.0
2016-Jun-24 01:32N 48°32' W 122°60'0 0.0
2016-Jun-24 00:29N 48°32' W 122°60'0 0.0
2016-Jun-23 23:32N 48°32' W 122°60'0 0.0
2016-Jun-23 22:32N 48°32' W 122°60'0 0.0
2016-Jun-23 21:32N 48°32' W 122°60'0 0.0
2016-Jun-23 20:33N 48°32' W 122°60'0 0.0
2016-Jun-23 19:32N 48°32' W 122°60'0 0.0
2016-Jun-23 18:32N 48°32' W 122°60'0 0.0
2016-Jun-23 17:29N 48°32' W 122°60'0 0.0
2016-Jun-23 16:32N 48°32' W 122°60'0 0.0
2016-Jun-23 15:33N 48°32' W 122°60'0 0.4
2016-Jun-23 14:33N 48°32' W 123°00'0 0.4
2016-Jun-23 13:32N 48°32' W 122°60'0 0.0
2016-Jun-23 12:32N 48°32' W 122°60'0 0.0
2016-Jun-23 11:29N 48°32' W 122°60'0 0.0
2016-Jun-23 10:32N 48°32' W 122°60'0 0.0
2016-Jun-23 09:32N 48°32' W 122°60'0 0.0
2016-Jun-23 08:29N 48°32' W 122°60'0 0.0
2016-Jun-23 07:32N 48°32' W 122°60'0 0.0
2016-Jun-23 05:32N 48°32' W 122°60'0 0.0
2016-Jun-23 04:32N 48°32' W 122°60'0 0.0
2016-Jun-23 03:32N 48°32' W 122°60'0 0.0
2016-Jun-23 02:30N 48°32' W 122°60'0 0.0
2016-Jun-23 01:30N 48°32' W 122°60'0 0.0
2016-Jun-23 00:33N 48°32' W 122°60'0 0.0
2016-Jun-22 23:33N 48°32' W 122°60'0 0.0
2016-Jun-22 22:33N 48°32' W 122°60'0 0.0
2016-Jun-22 21:32N 48°32' W 122°60'2 2.0
2016-Jun-22 20:34N 48°33' W 122°57'5 4.4
2016-Jun-22 19:32N 48°33' W 122°51'5 4.7
2016-Jun-22 18:33N 48°32' W 122°44'5 4.7
2016-Jun-22 17:30N 48°31' W 122°36'9 4.3
2016-Jun-22 15:33N 48°32' W 122°49'4 4.5
2016-Jun-22 14:33N 48°33' W 122°56'3 3.0
2016-Jun-22 13:29N 48°32' W 122°60'0 0.0
2016-Jun-22 12:32N 48°32' W 122°60'0 0.0
2016-Jun-22 11:32N 48°32' W 122°60'0 0.0
2016-Jun-22 10:23N 48°32' W 122°60'0 0.0
2016-Jun-22 09:29N 48°32' W 122°60'0 0.0
2016-Jun-22 06:29N 48°32' W 122°60'0 0.0
2016-Jun-22 05:32N 48°32' W 122°60'0 0.0
2016-Jun-22 04:29N 48°32' W 122°60'0 0.0
2016-Jun-22 03:32N 48°32' W 122°60'0 0.0
2016-Jun-22 02:29N 48°32' W 122°60'0 0.0
2016-Jun-22 01:29N 48°32' W 122°60'0 0.0
2016-Jun-22 00:33N 48°32' W 122°60'0 0.0
2016-Jun-21 23:33N 48°32' W 122°60'0 0.0
2016-Jun-21 22:34N 48°32' W 122°60'0 0.0
2016-Jun-21 21:34N 48°32' W 122°60'0 0.0
2016-Jun-21 20:30N 48°32' W 122°60'0 0.0
2016-Jun-21 19:33N 48°32' W 122°60'0 0.0
2016-Jun-21 18:33N 48°32' W 122°60'0 0.0
2016-Jun-21 17:33N 48°32' W 122°60'0 0.0
2016-Jun-21 16:33N 48°32' W 122°60'0 0.0
2016-Jun-21 15:33N 48°32' W 122°60'0 0.0
2016-Jun-21 14:33N 48°32' W 122°60'0 0.0
2016-Jun-21 13:33N 48°32' W 122°60'0 0.0
2016-Jun-21 12:33N 48°32' W 122°60'0 0.0
2016-Jun-21 11:24N 48°32' W 122°60'0 0.0
2016-Jun-21 10:33N 48°32' W 122°60'0 0.0
2016-Jun-21 09:33N 48°32' W 122°60'0 0.0
2016-Jun-21 08:33N 48°32' W 122°60'0 0.0
2016-Jun-21 07:33N 48°32' W 122°60'0 0.0
2016-Jun-21 04:33N 48°32' W 122°60'0 0.0
2016-Jun-21 03:33N 48°32' W 122°60'0 0.0
2016-Jun-21 02:33N 48°32' W 122°60'0 0.0
2016-Jun-21 01:33N 48°32' W 122°60'0 0.0
2016-Jun-21 00:33N 48°32' W 122°60'0 0.0
2016-Jun-20 23:32N 48°32' W 122°60'0 0.4
2016-Jun-20 22:31N 48°32' W 123°00'1 0.5
2016-Jun-20 21:33N 48°32' W 122°60'2 2.2
2016-Jun-20 20:33N 48°32' W 122°57'4 4.2
2016-Jun-20 19:33N 48°33' W 122°51'5 4.9
2016-Jun-20 18:33N 48°32' W 122°44'5 4.9
2016-Jun-20 17:33N 48°31' W 122°36'8 4.0
2016-Jun-20 15:32N 48°32' W 122°48'5 5.2
2016-Jun-20 14:33N 48°33' W 122°56'3 3.1
2016-Jun-20 13:33N 48°32' W 122°60'0 0.0
2016-Jun-20 12:33N 48°32' W 122°60'0 0.0
2016-Jun-20 11:33N 48°32' W 122°60'0 0.0
2016-Jun-20 10:33N 48°32' W 122°60'0 0.0
2016-Jun-20 09:33N 48°32' W 122°60'0 0.0
2016-Jun-20 08:30N 48°32' W 122°60'0 0.0
2016-Jun-20 07:33N 48°32' W 122°60'0 0.0
2016-Jun-20 06:33N 48°32' W 122°60'0 0.0
2016-Jun-20 05:34N 48°32' W 122°60'0 0.0
2016-Jun-20 04:31N 48°32' W 122°60'0 0.0
2016-Jun-20 03:31N 48°32' W 122°60'0 0.0
2016-Jun-20 02:31N 48°32' W 122°60'0 0.0
2016-Jun-20 01:31N 48°32' W 122°60'0 0.0
2016-Jun-20 00:31N 48°32' W 122°60'0 0.0
2016-Jun-19 23:33N 48°32' W 122°60'0 0.0
2016-Jun-19 22:33N 48°32' W 122°60'0 0.0
2016-Jun-19 21:32N 48°32' W 122°60'0 0.0
2016-Jun-19 19:33N 48°32' W 122°60'0 0.0
2016-Jun-19 18:33N 48°32' W 122°60'0 0.0
2016-Jun-19 17:31N 48°32' W 122°60'0 0.0
2016-Jun-19 16:28N 48°32' W 122°60'0 0.0
2016-Jun-19 15:28N 48°32' W 122°60'0 0.0
2016-Jun-19 14:33N 48°32' W 122°60'0 0.0
2016-Jun-19 13:33N 48°32' W 122°60'0 0.0
2016-Jun-19 12:33N 48°32' W 122°60'0 0.0
2016-Jun-19 11:33N 48°32' W 122°60'0 0.0
2016-Jun-19 10:33N 48°32' W 122°60'0 0.0
2016-Jun-19 09:33N 48°32' W 122°60'0 0.0
2016-Jun-19 08:33N 48°32' W 122°60'0 0.0
2016-Jun-19 07:33N 48°32' W 122°60'0 0.0
2016-Jun-19 06:33N 48°32' W 122°60'0 0.0
2016-Jun-19 05:33N 48°32' W 122°60'0 0.0
2016-Jun-19 04:33N 48°32' W 122°60'0 0.0
2016-Jun-19 03:33N 48°32' W 122°60'0 0.0
2016-Jun-19 02:33N 48°32' W 122°60'0 0.0
2016-Jun-19 01:32N 48°32' W 122°60'0 0.0
2016-Jun-19 00:32N 48°32' W 122°60'0 0.0
2016-Jun-18 20:13N 48°32' W 122°60'0 0.0
2016-Jun-18 19:33N 48°32' W 122°60'0 0.0
2016-Jun-18 18:33N 48°32' W 122°60'0 0.0
2016-Jun-18 17:33N 48°32' W 122°60'0 0.0
2016-Jun-18 16:33N 48°32' W 122°60'0 0.0
2016-Jun-18 15:33N 48°32' W 122°60'0 0.0
2016-Jun-18 14:33N 48°32' W 122°60'0 0.0
2016-Jun-18 13:33N 48°32' W 122°60'0 0.0
2016-Jun-18 12:33N 48°32' W 122°60'0 0.0
2016-Jun-18 11:33N 48°32' W 122°60'0 0.0
2016-Jun-18 10:33N 48°32' W 122°60'0 0.0
2016-Jun-18 09:30N 48°32' W 122°60'0 0.0
2016-Jun-18 08:33N 48°32' W 122°60'0 0.0
2016-Jun-18 07:30N 48°32' W 122°60'0 0.0
2016-Jun-18 06:34N 48°32' W 122°60'0 0.0
2016-Jun-18 05:34N 48°32' W 122°60'0 0.0
2016-Jun-18 04:30N 48°32' W 122°60'0 0.0
2016-Jun-18 03:33N 48°32' W 122°60'0 0.0
2016-Jun-18 02:33N 48°32' W 122°60'0 0.0
2016-Jun-18 01:33N 48°32' W 122°60'1 1.1
2016-Jun-18 00:33N 48°31' W 123°00'1 1.2
2016-Jun-17 23:33N 48°31' W 122°58'1 1.2
2016-Jun-17 22:30N 48°32' W 122°60'0 0.0
2016-Jun-17 21:33N 48°32' W 122°60'0 0.0
2016-Jun-17 20:30N 48°32' W 122°60'0 0.0
2016-Jun-17 19:31N 48°32' W 122°60'0 0.0
2016-Jun-17 18:31N 48°32' W 122°60'0 0.0
2016-Jun-17 17:21N 48°32' W 122°60'0 0.0
2016-Jun-17 16:33N 48°32' W 122°60'0 0.0
2016-Jun-17 15:33N 48°32' W 122°60'0 0.0
2016-Jun-17 14:33N 48°32' W 122°60'0 0.0
2016-Jun-17 13:33N 48°32' W 122°60'0 0.0
2016-Jun-17 12:33N 48°32' W 122°60'0 0.0
2016-Jun-17 11:33N 48°32' W 122°60'0 0.0
2016-Jun-17 10:33N 48°32' W 122°60'0 0.0
2016-Jun-17 09:33N 48°32' W 122°60'0 0.0
2016-Jun-17 08:33N 48°32' W 122°60'0 0.0
2016-Jun-17 07:32N 48°32' W 122°60'0 0.0
2016-Jun-17 06:32N 48°32' W 122°60'0 0.0
2016-Jun-17 05:32N 48°32' W 122°60'0 0.0
2016-Jun-17 04:32N 48°32' W 122°60'0 0.0
2016-Jun-17 03:32N 48°32' W 122°60'0 0.0
2016-Jun-17 02:32N 48°32' W 122°60'0 0.1
2016-Jun-17 01:33N 48°32' W 123°00'  

Dump ship's entire track history